Time;durP1;ratioP1;P1;durP2;ratioP2;P2;SDS_P1;SDS_P2;PMS_P1;PMS_P2;Temp;Humidity;BMP_temperature;BMP_pressure;BME280_temperature;BME280_humidity;BME280_pressure;Samples;Min_cycle;Max_cycle;Signal;HPM_P1;HPM_P2
2023/07/01 00:05:53;;;;;;;4.10;3.37;;;18.10;95.00;;;;;;20923839;28;20319;-67
2023/07/01 00:15:56;;;;;;;5.97;3.40;;;17.90;95.10;;;;;;20772877;28;20252;-63
2023/07/01 00:25:58;;;;;;;9.93;5.17;;;17.80;95.30;;;;;;20761464;28;20292;-62
2023/07/01 00:36:00;;;;;;;15.37;7.17;;;17.70;95.70;;;;;;20760328;28;20240;-63
2023/07/01 00:46:01;;;;;;;8.67;5.10;;;17.60;95.90;;;;;;20759600;28;20205;-62
2023/07/01 00:56:03;;;;;;;9.03;4.00;;;17.50;96.00;;;;;;20791240;28;20234;-62
2023/07/01 01:06:16;;;;;;;12.20;5.63;;;17.30;96.30;;;;;;20922153;28;20267;-63
2023/07/01 01:16:19;;;;;;;30.73;13.23;;;17.10;96.50;;;;;;20892159;28;20235;-62
2023/07/01 01:26:26;;;;;;;20.27;9.90;;;17.00;96.60;;;;;;20756622;28;20571;-63
2023/07/01 01:36:40;;;;;;;12.33;6.90;;;16.90;96.80;;;;;;20755515;28;20271;-68
2023/07/01 01:46:43;;;;;;;4.70;3.90;;;16.80;96.90;;;;;;20754838;28;20290;-70
2023/07/01 01:56:44;;;;;;;5.33;4.30;;;16.80;97.10;;;;;;20797552;28;20287;-63
2023/07/01 02:06:46;;;;;;;6.00;4.03;;;16.70;97.20;;;;;;20917212;28;20274;-62
2023/07/01 02:16:52;;;;;;;5.07;4.17;;;16.70;97.30;;;;;;20916544;28;20286;-63
2023/07/01 02:26:54;;;;;;;8.50;4.03;;;16.50;97.40;;;;;;20844212;28;20217;-62
2023/07/01 02:36:56;;;;;;;5.87;3.70;;;16.50;97.40;;;;;;20751121;28;20326;-62
2023/07/01 02:46:58;;;;;;;5.40;4.10;;;16.50;97.50;;;;;;20750393;28;20624;-62
2023/07/01 02:56:59;;;;;;;5.90;4.00;;;16.50;97.40;;;;;;20797149;28;20322;-63
2023/07/01 03:07:01;;;;;;;4.70;3.90;;;16.40;97.40;;;;;;20912838;28;20270;-63
2023/07/01 03:17:03;;;;;;;4.77;3.70;;;16.50;97.50;;;;;;20912690;28;20744;-62
2023/07/01 03:27:07;;;;;;;7.67;4.27;;;16.30;97.50;;;;;;20912615;28;20208;-64
2023/07/01 03:37:09;;;;;;;6.43;4.33;;;16.30;97.50;;;;;;20803733;28;20321;-66
2023/07/01 03:47:13;;;;;;;4.70;3.83;;;16.10;97.70;;;;;;20764501;28;20267;-64
2023/07/01 03:57:15;;;;;;;5.27;4.27;;;15.90;97.80;;;;;;20815343;28;20576;-69
2023/07/01 04:07:21;;;;;;;4.33;3.83;;;15.90;98.00;;;;;;20926511;28;20328;-62
2023/07/01 04:17:23;;;;;;;5.60;4.07;;;16.00;98.00;;;;;;20926111;28;20690;-62
2023/07/01 04:27:24;;;;;;;5.43;4.23;;;16.00;97.70;;;;;;20925382;28;20667;-62
2023/07/01 04:37:26;;;;;;;5.57;4.20;;;16.20;97.70;;;;;;20924427;28;20215;-64
2023/07/01 04:47:29;;;;;;;4.70;4.20;;;16.20;97.70;;;;;;20767840;28;20218;-69
2023/07/01 04:57:31;;;;;;;7.00;4.40;;;16.40;97.70;;;;;;20815037;28;20709;-70
2023/07/01 05:07:33;;;;;;;5.50;4.80;;;16.50;97.80;;;;;;20921689;28;20238;-69
2023/07/01 05:17:34;;;;;;;5.37;4.60;;;16.80;97.90;;;;;;20921369;28;20663;-70
2023/07/01 05:27:36;;;;;;;10.13;4.20;;;17.20;97.80;;;;;;20920273;28;20208;-70
2023/07/01 05:37:38;;;;;;;5.87;4.77;;;17.50;97.50;;;;;;20920061;28;20299;-70
2023/07/01 05:47:40;;;;;;;8.70;5.80;;;17.90;97.20;;;;;;20897589;28;20213;-71
2023/07/01 05:57:42;;;;;;;7.83;4.93;;;18.40;96.80;;;;;;20827233;28;20267;-64
2023/07/01 06:07:43;;;;;;;5.93;4.60;;;19.00;96.00;;;;;;20917518;28;20329;-63
2023/07/01 06:17:45;;;;;;;5.50;3.43;;;19.70;94.30;;;;;;20916192;28;20298;-69
2023/07/01 06:27:47;;;;;;;5.17;3.33;;;20.20;92.40;;;;;;20915509;28;20655;-70
2023/07/01 06:37:49;;;;;;;5.87;3.60;;;20.50;90.80;;;;;;20914616;28;20211;-69
2023/07/01 06:47:50;;;;;;;9.93;4.20;;;20.70;87.40;;;;;;20913544;28;20258;-67
2023/07/01 06:57:52;;;;;;;5.30;3.20;;;20.90;84.20;;;;;;20867384;28;20249;-63
2023/07/01 07:07:54;;;;;;;6.30;4.20;;;21.00;81.30;;;;;;20829066;28;20359;-69
2023/07/01 07:17:56;;;;;;;6.00;2.60;;;21.20;79.20;;;;;;20828780;28;20200;-69
2023/07/01 07:27:58;;;;;;;4.70;2.40;;;21.40;76.80;;;;;;20829516;28;20710;-67
2023/07/01 07:38:00;;;;;;;3.57;2.47;;;21.70;73.80;;;;;;20829260;28;20212;-67
2023/07/01 07:48:02;;;;;;;4.07;2.57;;;22.00;71.90;;;;;;20807270;28;20228;-76
2023/07/01 07:58:04;;;;;;;10.23;3.10;;;22.20;69.90;;;;;;20792908;28;20596;-66
2023/07/01 08:08:05;;;;;;;5.00;2.27;;;22.40;68.00;;;;;;20756186;28;20341;-70
2023/07/01 08:18:07;;;;;;;9.00;2.87;;;22.60;65.80;;;;;;20745515;28;20305;-78
2023/07/01 08:28:09;;;;;;;4.03;2.30;;;22.80;64.30;;;;;;20759486;28;20261;-72
2023/07/01 08:38:11;;;;;;;7.70;2.50;;;23.00;63.10;;;;;;20757209;28;20209;-70
2023/07/01 08:48:13;;;;;;;9.10;2.43;;;23.10;60.60;;;;;;20756138;28;20635;-72
2023/07/01 08:58:15;;;;;;;8.03;2.57;;;23.20;59.60;;;;;;20770845;28;20213;-69
2023/07/01 09:08:18;;;;;;;8.57;2.33;;;23.30;59.30;;;;;;20772289;28;20664;-64
2023/07/01 09:18:20;;;;;;;4.23;1.90;;;23.40;58.00;;;;;;20753365;28;20691;-68
2023/07/01 09:28:31;;;;;;;6.50;2.10;;;23.50;55.90;;;;;;20753368;28;20328;-66
2023/07/01 09:38:52;;;;;;;3.50;2.10;;;23.50;54.70;;;;;;20755039;28;20716;-66
2023/07/01 09:48:57;;;;;;;5.93;1.83;;;23.50;53.60;;;;;;20752885;28;20249;-68
2023/07/01 09:58:59;;;;;;;2.73;1.80;;;23.60;52.00;;;;;;20753351;28;20248;-69
2023/07/01 10:09:02;;;;;;;3.03;2.10;;;23.60;51.90;;;;;;20752725;28;20281;-70
2023/07/01 10:19:31;;;;;;;4.87;2.30;;;23.70;52.00;;;;;;20752065;28;20213;-71
2023/07/01 10:29:33;;;;;;;9.50;2.50;;;24.00;51.50;;;;;;20749283;28;20299;-69
2023/07/01 10:39:35;;;;;;;5.50;2.20;;;24.20;51.10;;;;;;20750242;28;20260;-63
2023/07/01 10:49:36;;;;;;;4.53;1.90;;;24.50;51.00;;;;;;20748646;28;20271;-64
2023/07/01 10:59:38;;;;;;;4.63;2.43;;;24.80;51.00;;;;;;20749385;28;20211;-69
2023/07/01 11:09:40;;;;;;;7.10;2.60;;;24.40;51.70;;;;;;20748561;28;20237;-70
2023/07/01 11:19:44;;;;;;;7.00;2.43;;;24.50;52.40;;;;;;20748143;28;20551;-67
2023/07/01 11:29:47;;;;;;;7.37;2.10;;;24.50;52.40;;;;;;20747875;28;20237;-67
2023/07/01 11:39:49;;;;;;;9.60;2.57;;;24.50;53.10;;;;;;20746293;28;20220;-71
2023/07/01 11:49:51;;;;;;;9.40;2.97;;;24.50;53.50;;;;;;20745295;28;20229;-63
2023/07/01 12:00:00;;;;;;;4.43;2.30;;;24.50;53.80;;;;;;20755718;28;20212;-70
2023/07/01 12:10:20;;;;;;;5.37;2.50;;;24.40;54.30;;;;;;20760520;28;20237;-72
2023/07/01 12:20:22;;;;;;;5.10;2.47;;;23.90;55.30;;;;;;20760453;28;20232;-66
2023/07/01 12:30:23;;;;;;;4.87;2.97;;;23.60;55.70;;;;;;20759588;28;20256;-70
2023/07/01 12:40:29;;;;;;;5.10;3.10;;;24.00;55.80;;;;;;20759075;28;20216;-72
2023/07/01 12:50:32;;;;;;;5.93;2.70;;;24.10;56.10;;;;;;20758850;28;20316;-79
2023/07/01 13:00:34;;;;;;;3.97;2.63;;;24.10;56.40;;;;;;20758192;28;20549;-66
2023/07/01 13:10:42;;;;;;;5.90;2.90;;;23.80;56.90;;;;;;20756018;28;20674;-64
2023/07/01 13:20:44;;;;;;;9.87;2.60;;;23.80;57.70;;;;;;20792173;28;20296;-65
2023/07/01 13:30:47;;;;;;;5.30;1.97;;;23.90;58.70;;;;;;20778081;28;20304;-64
2023/07/01 13:40:51;;;;;;;4.77;2.03;;;24.00;58.30;;;;;;20752350;28;20297;-69
2023/07/01 13:50:53;;;;;;;3.07;2.23;;;24.40;58.50;;;;;;20750720;28;20259;-64
2023/07/01 14:00:55;;;;;;;4.43;2.30;;;24.90;58.80;;;;;;20751132;28;20717;-69
2023/07/01 14:10:57;;;;;;;4.23;2.20;;;24.80;58.90;;;;;;20750479;28;20237;-70
2023/07/01 14:21:07;;;;;;;2.47;2.20;;;25.50;58.10;;;;;;20749835;28;20213;-66
2023/07/01 14:31:22;;;;;;;3.37;1.93;;;25.40;58.20;;;;;;20749447;28;20244;-64
2023/07/01 14:41:27;;;;;;;2.47;2.00;;;24.70;59.00;;;;;;20747707;28;20213;-61
2023/07/01 14:51:29;;;;;;;3.10;1.97;;;24.30;59.90;;;;;;20748512;28;20319;-63
2023/07/01 15:01:31;;;;;;;5.37;2.40;;;24.10;60.40;;;;;;20749369;28;20212;-66
2023/07/01 15:11:33;;;;;;;2.57;1.80;;;23.90;61.00;;;;;;20747724;28;20602;-65
2023/07/01 15:21:35;;;;;;;3.37;2.33;;;23.70;61.50;;;;;;20748625;28;20793;-63
2023/07/01 15:31:37;;;;;;;8.07;2.60;;;23.60;62.00;;;;;;20747338;28;20235;-62
2023/07/01 15:41:39;;;;;;;5.23;2.13;;;23.50;62.60;;;;;;20762672;28;20202;-64
2023/07/01 15:51:49;;;;;;;3.57;2.50;;;23.20;63.40;;;;;;20746189;28;20756;-63
2023/07/01 16:01:51;;;;;;;4.73;2.40;;;23.30;63.80;;;;;;20746759;28;20292;-62
2023/07/01 16:11:53;;;;;;;3.50;2.30;;;23.20;64.50;;;;;;20745756;28;20332;-64
2023/07/01 16:21:54;;;;;;;6.60;2.03;;;23.10;64.90;;;;;;20746370;28;20244;-65
2023/07/01 16:31:56;;;;;;;8.47;2.43;;;23.00;65.10;;;;;;20745552;28;20601;-64
2023/07/01 16:42:02;;;;;;;3.97;2.43;;;22.80;65.00;;;;;;20748158;28;20295;-68
2023/07/01 16:52:04;;;;;;;4.07;2.50;;;22.70;65.90;;;;;;20759796;28;20243;-66
2023/07/01 17:02:32;;;;;;;6.73;4.60;;;22.60;66.40;;;;;;20758338;28;20223;-68
2023/07/01 17:12:34;;;;;;;5.10;2.70;;;22.60;66.80;;;;;;20756487;28;20236;-65
2023/07/01 17:22:39;;;;;;;4.47;2.23;;;22.40;67.70;;;;;;20790202;28;20668;-66
2023/07/01 17:32:40;;;;;;;3.60;2.40;;;22.30;68.30;;;;;;20756268;28;20241;-65
2023/07/01 17:42:43;;;;;;;6.70;4.23;;;22.30;70.80;;;;;;20770821;28;20252;-64
2023/07/01 17:52:44;;;;;;;4.50;3.17;;;21.70;75.40;;;;;;20754732;28;20236;-68
2023/07/01 18:02:49;;;;;;;4.23;2.80;;;21.10;81.00;;;;;;20754076;28;20368;-62
2023/07/01 18:12:53;;;;;;;5.03;2.30;;;20.80;86.80;;;;;;20753172;28;20274;-65
2023/07/01 18:22:54;;;;;;;5.43;2.27;;;20.70;90.40;;;;;;20751692;28;20252;-64
2023/07/01 18:32:56;;;;;;;5.30;2.37;;;20.80;91.70;;;;;;20751693;28;20237;-63
2023/07/01 18:42:58;;;;;;;7.10;2.43;;;20.80;93.00;;;;;;20751377;28;20660;-62
2023/07/01 18:53:00;;;;;;;3.87;2.20;;;20.80;94.00;;;;;;20750939;28;20236;-63
2023/07/01 19:03:01;;;;;;;3.43;1.87;;;20.80;94.70;;;;;;20749263;28;20340;-62
2023/07/01 19:13:03;;;;;;;4.70;2.30;;;20.90;95.40;;;;;;20749024;28;20742;-63
2023/07/01 19:23:05;;;;;;;4.90;2.23;;;20.70;95.70;;;;;;20749412;28;20209;-63
2023/07/01 19:33:07;;;;;;;2.17;1.90;;;20.80;95.90;;;;;;20748272;28;20232;-63
2023/07/01 19:43:09;;;;;;;3.67;2.23;;;20.80;96.20;;;;;;20747698;28;20212;-63
2023/07/01 19:53:13;;;;;;;3.93;2.00;;;20.70;96.20;;;;;;20747970;28;20281;-63
2023/07/01 20:03:16;;;;;;;4.80;2.00;;;20.70;96.10;;;;;;20747111;28;20244;-63
2023/07/01 20:13:18;;;;;;;3.30;1.80;;;20.70;95.90;;;;;;20746811;28;20247;-70
2023/07/01 20:23:20;;;;;;;1.80;1.70;;;20.70;95.70;;;;;;20761071;28;20212;-67
2023/07/01 20:33:24;;;;;;;2.30;1.67;;;20.70;95.50;;;;;;20760764;28;20320;-70
2023/07/01 20:43:25;;;;;;;2.40;1.90;;;20.60;95.40;;;;;;20760180;28;20243;-68
2023/07/01 20:53:27;;;;;;;2.80;1.87;;;20.60;95.40;;;;;;20758291;28;20323;-69
2023/07/01 21:03:29;;;;;;;2.00;1.80;;;20.60;95.40;;;;;;20788162;28;20227;-67
2023/07/01 21:13:31;;;;;;;3.57;1.70;;;20.60;95.50;;;;;;20799109;28;20282;-69
2023/07/01 21:23:33;;;;;;;2.57;1.60;;;20.50;95.40;;;;;;20790778;28;20735;-66
2023/07/01 21:33:34;;;;;;;3.70;1.80;;;20.60;95.50;;;;;;20788581;28;20323;-65
2023/07/01 21:43:36;;;;;;;2.10;1.90;;;20.60;95.20;;;;;;20797602;28;20208;-65
2023/07/01 21:53:44;;;;;;;2.20;2.00;;;20.50;95.30;;;;;;20799143;28;20244;-66
2023/07/01 22:03:46;;;;;;;2.33;2.10;;;20.50;95.40;;;;;;20784756;28;20323;-66
2023/07/01 22:13:48;;;;;;;2.97;2.20;;;20.40;95.50;;;;;;20795820;28;20674;-66
2023/07/01 22:23:50;;;;;;;2.80;2.50;;;20.40;95.50;;;;;;20787364;28;20208;-66
2023/07/01 22:33:52;;;;;;;2.83;2.57;;;20.40;95.50;;;;;;20785583;28;20239;-67
2023/07/01 22:43:55;;;;;;;4.00;2.90;;;20.40;95.40;;;;;;20794366;28;20295;-68
2023/07/01 22:53:57;;;;;;;3.80;3.07;;;20.20;95.40;;;;;;20784163;28;20239;-69
2023/07/01 23:03:58;;;;;;;3.20;2.90;;;20.20;95.60;;;;;;20785052;28;20231;-68
2023/07/01 23:14:00;;;;;;;4.57;2.80;;;20.00;95.40;;;;;;20791780;28;20231;-65
2023/07/01 23:24:02;;;;;;;3.57;3.23;;;20.00;95.80;;;;;;20782272;28;20319;-68
2023/07/01 23:34:05;;;;;;;3.60;3.00;;;19.80;95.90;;;;;;20783262;28;20231;-68
2023/07/01 23:44:08;;;;;;;3.90;3.10;;;19.80;96.20;;;;;;20777282;28;20716;-67
2023/07/01 23:54:10;;;;;;;3.43;3.13;;;19.70;96.20;;;;;;20791076;28;20272;-69
